Time;durP1;ratioP1;P1;durP2;ratioP2;P2;SDS_P1;SDS_P2;PMS_P1;PMS_P2;Temp;Humidity;BMP_temperature;BMP_pressure;BME280_temperature;BME280_humidity;BME280_pressure;Samples;Min_cycle;Max_cycle;Signal;HPM_P1;HPM_P2
2023/08/26 00:02:24;;;;;;;0.20;0.20;;;30.00;54.60;;;30.85;39.26;94598.91;4992745;28;20308;-30
2023/08/26 00:04:52;;;;;;;0.28;0.28;;;30.00;54.50;;;30.84;38.85;94597.34;4992904;28;20581;-35
2023/08/26 00:07:19;;;;;;;0.30;0.30;;;30.00;54.50;;;30.81;39.12;94594.16;4993052;28;20704;-30
2023/08/26 00:09:46;;;;;;;0.20;0.20;;;29.90;54.50;;;30.80;39.51;94587.16;4993229;28;20279;-32
2023/08/26 00:12:13;;;;;;;0.30;0.30;;;29.90;54.60;;;30.79;39.84;94588.28;4992695;28;20287;-29
2023/08/26 00:14:40;;;;;;;0.30;0.30;;;29.90;54.80;;;30.78;39.61;94578.56;4992817;28;20589;-30
2023/08/26 00:17:07;;;;;;;0.25;0.25;;;29.90;54.80;;;30.75;39.09;94589.25;4992639;28;20271;-29
2023/08/26 00:19:34;;;;;;;0.30;0.30;;;29.90;54.90;;;30.76;39.61;94591.66;4995636;28;20613;-31
2023/08/26 00:22:01;;;;;;;0.32;0.32;;;29.90;54.70;;;30.77;39.76;94587.81;4996194;28;20304;-30
2023/08/26 00:24:28;;;;;;;0.40;0.40;;;29.90;54.80;;;30.75;39.09;94590.06;4996008;28;20705;-30
2023/08/26 00:26:55;;;;;;;0.40;0.40;;;29.90;54.80;;;30.76;39.56;94605.19;4996897;28;20519;-30
2023/08/26 00:29:22;;;;;;;0.30;0.30;;;29.90;54.90;;;30.76;39.75;94610.59;4996174;28;20207;-29
2023/08/26 00:31:49;;;;;;;0.30;0.30;;;29.80;54.80;;;30.74;39.41;94602.00;4995859;28;20221;-30
2023/08/26 00:34:16;;;;;;;0.30;0.30;;;29.90;54.80;;;30.74;39.17;94599.31;4995185;28;20546;-32
2023/08/26 00:36:44;;;;;;;0.32;0.32;;;29.90;54.80;;;30.72;39.68;94600.75;4994763;28;20232;-31
2023/08/26 00:39:11;;;;;;;0.30;0.30;;;29.90;54.80;;;30.71;39.13;94596.44;4994850;28;20233;-30
2023/08/26 00:41:38;;;;;;;0.30;0.30;;;29.90;54.80;;;30.69;39.16;94588.66;4995918;28;20204;-31
2023/08/26 00:44:05;;;;;;;0.30;0.30;;;29.80;54.90;;;30.68;39.67;94584.38;4978748;28;20193;-31
2023/08/26 00:46:34;;;;;;;0.30;0.30;;;29.80;54.90;;;30.66;39.29;94583.91;4995490;28;20193;-29
2023/08/26 00:49:02;;;;;;;0.20;0.20;;;29.80;55.00;;;30.65;39.97;94582.31;4995179;28;20667;-30
2023/08/26 00:51:30;;;;;;;0.28;0.28;;;29.80;55.10;;;30.63;39.47;94577.22;5010941;28;20632;-30
2023/08/26 00:53:58;;;;;;;0.30;0.30;;;29.80;55.00;;;30.63;39.84;94574.53;4994872;28;20541;-29
2023/08/26 00:56:25;;;;;;;0.28;0.28;;;29.80;55.10;;;30.62;39.84;94577.56;5010909;28;20214;-28
2023/08/26 00:58:53;;;;;;;0.30;0.30;;;29.80;55.00;;;30.59;39.64;94573.59;4996063;28;20613;-30
2023/08/26 01:01:20;;;;;;;0.30;0.30;;;29.80;55.00;;;30.56;39.43;94566.13;4994627;28;20255;-31
2023/08/26 01:03:47;;;;;;;0.30;0.30;;;29.80;55.00;;;30.54;39.53;94564.88;4995902;28;20241;-30
2023/08/26 01:06:15;;;;;;;0.20;0.20;;;29.80;55.10;;;30.53;39.77;94560.56;4994499;28;20667;-32
2023/08/26 01:08:42;;;;;;;0.30;0.30;;;29.80;55.20;;;30.52;39.82;94562.50;4994296;28;20217;-30
2023/08/26 01:11:28;;;;;;;0.30;0.30;;;29.70;55.20;;;30.49;40.23;94563.13;4995308;28;20277;-30
2023/08/26 01:14:40;;;;;;;0.30;0.30;;;29.70;55.30;;;30.45;39.71;94562.97;4995567;28;20517;-29
2023/08/26 01:17:08;;;;;;;0.32;0.32;;;29.70;55.20;;;30.46;39.68;94563.78;4977964;28;20310;-29
2023/08/26 01:19:40;;;;;;;0.30;0.30;;;29.70;55.40;;;30.45;40.04;94559.50;5079512;28;20202;-30
2023/08/26 01:22:09;;;;;;;0.30;0.30;;;29.70;55.40;;;30.46;40.10;94561.06;4994272;28;20201;-30
2023/08/26 01:24:40;;;;;;;0.30;0.30;;;29.70;55.50;;;30.45;39.86;94567.59;4994146;28;20552;-30
2023/08/26 01:27:08;;;;;;;0.35;0.35;;;29.70;55.60;;;30.44;40.42;94564.09;4995282;28;20186;-31
2023/08/26 01:29:35;;;;;;;0.40;0.40;;;29.70;55.60;;;30.44;40.07;94571.44;4994572;28;20197;-29
2023/08/26 01:32:22;;;;;;;0.30;0.30;;;29.60;55.70;;;30.42;40.80;94571.75;4978025;28;20644;-30
2023/08/26 01:34:54;;;;;;;0.32;0.32;;;29.60;55.60;;;30.41;40.45;94569.41;4994702;28;20185;-30
2023/08/26 01:37:23;;;;;;;0.30;0.30;;;29.70;55.80;;;30.41;40.09;94562.06;4994877;28;20177;-30
2023/08/26 01:39:53;;;;;;;0.30;0.30;;;29.60;55.70;;;30.40;40.26;94559.69;5078614;28;20198;-29
2023/08/26 01:42:24;;;;;;;0.25;0.25;;;29.60;55.70;;;30.39;40.46;94558.09;5079372;28;20284;-29
2023/08/26 01:44:52;;;;;;;0.30;0.30;;;29.60;55.90;;;30.39;40.36;94567.00;4993880;28;20204;-31
2023/08/26 01:47:19;;;;;;;0.30;0.30;;;29.60;55.80;;;30.39;40.64;94585.16;4977633;28;20592;-30
2023/08/26 01:49:46;;;;;;;0.30;0.30;;;29.60;55.80;;;30.37;40.13;94592.78;4994724;28;20190;-30
2023/08/26 01:52:13;;;;;;;0.25;0.25;;;29.60;55.80;;;30.36;40.41;94592.00;4994968;28;20209;-31
2023/08/26 01:54:42;;;;;;;0.30;0.30;;;29.60;55.90;;;30.34;40.69;94592.31;5078044;28;20221;-32
2023/08/26 01:57:09;;;;;;;0.50;0.50;;;29.50;55.90;;;30.34;40.38;94595.03;4995146;28;20199;-30
2023/08/26 01:59:36;;;;;;;0.25;0.25;;;29.60;56.00;;;30.33;40.65;94598.88;4977548;28;20645;-30
2023/08/26 02:02:04;;;;;;;0.40;0.40;;;29.60;56.10;;;30.32;40.26;94605.41;5009857;28;20308;-30
2023/08/26 02:04:31;;;;;;;0.30;0.30;;;29.60;56.10;;;30.31;40.30;94597.59;4993608;28;20194;-31
2023/08/26 02:06:58;;;;;;;0.30;0.30;;;29.50;56.00;;;30.30;40.79;94607.63;4993568;28;20296;-30
2023/08/26 02:09:25;;;;;;;0.40;0.40;;;29.50;56.00;;;30.31;40.78;94606.50;4994130;28;20197;-31
2023/08/26 02:11:52;;;;;;;0.40;0.40;;;29.50;56.00;;;30.29;40.86;94603.34;4993513;28;20216;-30
2023/08/26 02:14:19;;;;;;;0.20;0.20;;;29.50;55.90;;;30.27;40.73;94602.88;4993432;28;20198;-29
2023/08/26 02:16:46;;;;;;;0.30;0.30;;;29.50;56.00;;;30.25;40.61;94605.09;5009556;28;20309;-34
2023/08/26 02:19:13;;;;;;;0.20;0.20;;;29.50;56.10;;;30.25;41.08;94601.59;4994491;28;20292;-29
2023/08/26 02:21:40;;;;;;;0.40;0.40;;;29.40;56.10;;;30.23;40.46;94599.22;4993346;28;20199;-29
2023/08/26 02:24:07;;;;;;;0.30;0.30;;;29.50;56.00;;;30.22;40.81;94577.91;4994406;28;20639;-29
2023/08/26 02:26:36;;;;;;;0.30;0.30;;;29.40;56.00;;;30.18;40.49;94573.13;4993250;28;20196;-31
2023/08/26 02:29:04;;;;;;;0.32;0.32;;;29.40;56.00;;;30.19;40.77;94574.72;4994291;28;20651;-31
2023/08/26 02:31:31;;;;;;;0.30;0.30;;;29.40;56.10;;;30.17;40.94;94582.38;4993105;28;20523;-30
2023/08/26 02:33:58;;;;;;;0.30;0.30;;;29.40;56.10;;;30.16;41.02;94577.28;4993088;28;20237;-31
2023/08/26 02:36:25;;;;;;;0.20;0.20;;;29.40;56.10;;;30.16;41.09;94578.09;4993064;28;20207;-29
2023/08/26 02:38:52;;;;;;;0.30;0.30;;;29.40;56.10;;;30.14;40.70;94577.63;4992908;28;20206;-30
2023/08/26 02:41:20;;;;;;;0.20;0.20;;;29.40;56.20;;;30.13;41.06;94584.16;4993193;28;20280;-29
2023/08/26 02:43:49;;;;;;;0.30;0.30;;;29.40;56.20;;;30.12;41.22;94587.97;4977076;28;20229;-29
2023/08/26 02:46:16;;;;;;;0.30;0.30;;;29.40;56.20;;;30.11;40.58;94580.97;4992924;28;20201;-29
2023/08/26 02:48:43;;;;;;;0.20;0.20;;;29.30;56.20;;;30.10;40.73;94576.69;4992873;28;20201;-30
2023/08/26 02:51:10;;;;;;;0.35;0.35;;;29.30;56.20;;;30.10;40.98;94570.47;4992863;28;20246;-30
2023/08/26 02:53:37;;;;;;;0.30;0.30;;;29.30;56.20;;;30.08;40.61;94576.22;4992853;28;20216;-30
2023/08/26 02:56:04;;;;;;;0.30;0.30;;;29.30;56.30;;;30.07;40.68;94571.94;4993811;28;20651;-32
2023/08/26 02:58:31;;;;;;;0.20;0.20;;;29.30;56.20;;;30.05;41.18;94570.66;4993630;28;20254;-33
2023/08/26 03:01:02;;;;;;;0.20;0.20;;;29.30;56.20;;;30.02;41.18;94572.13;4994208;28;20211;-35
2023/08/26 03:03:30;;;;;;;0.30;0.30;;;29.30;56.10;;;29.99;40.66;94570.03;4994127;28;20265;-32
2023/08/26 03:05:57;;;;;;;0.20;0.20;;;29.30;56.20;;;29.98;40.40;94581.97;4993665;28;20202;-30
2023/08/26 03:08:25;;;;;;;0.32;0.32;;;29.30;56.10;;;29.98;40.92;94577.38;4992498;28;20205;-30
2023/08/26 03:11:07;;;;;;;0.20;0.20;;;29.20;56.00;;;29.94;41.12;94575.63;4993807;28;20220;-30
2023/08/26 03:13:34;;;;;;;0.30;0.30;;;29.20;56.10;;;29.91;40.68;94571.69;4993708;28;20619;-32
2023/08/26 03:16:09;;;;;;;0.30;0.30;;;29.20;56.10;;;29.91;41.08;94565.47;4993826;28;20608;-31
2023/08/26 03:18:39;;;;;;;0.20;0.20;;;29.20;56.10;;;29.91;40.53;94568.19;5077372;28;20208;-31
2023/08/26 03:21:09;;;;;;;0.40;0.40;;;29.20;56.10;;;29.89;40.42;94556.88;4992443;28;20200;-31
2023/08/26 03:23:36;;;;;;;0.30;0.30;;;29.10;56.10;;;29.86;40.45;94558.31;4992312;28;20234;-32
2023/08/26 03:26:04;;;;;;;0.30;0.30;;;29.10;56.10;;;29.86;40.92;94561.00;4992357;28;20204;-30
2023/08/26 03:28:33;;;;;;;0.38;0.38;;;29.10;56.20;;;29.85;40.80;94562.91;4992170;28;20197;-31
2023/08/26 03:31:05;;;;;;;0.30;0.30;;;29.10;56.20;;;29.84;41.17;94561.31;4992343;28;20189;-32
2023/08/26 03:33:34;;;;;;;0.30;0.30;;;29.10;56.20;;;29.84;40.72;94563.25;4993488;28;20174;-30
2023/08/26 03:36:05;;;;;;;0.30;0.30;;;29.10;56.30;;;29.83;40.63;94569.75;4993431;28;20217;-34
2023/08/26 03:38:36;;;;;;;0.20;0.20;;;29.10;56.40;;;29.82;40.84;94573.56;4992268;28;20201;-30
2023/08/26 03:41:06;;;;;;;0.28;0.28;;;29.10;56.40;;;29.82;41.28;94560.88;4993436;28;20203;-30
2023/08/26 03:43:34;;;;;;;0.20;0.20;;;29.10;56.30;;;29.81;40.96;94559.28;5008563;28;20254;-32
2023/08/26 03:46:03;;;;;;;0.30;0.30;;;29.10;56.30;;;29.81;40.63;94550.34;4992191;28;20268;-32
2023/08/26 03:48:31;;;;;;;0.30;0.30;;;29.10;56.20;;;29.78;40.47;94548.31;4991933;28;20208;-31
2023/08/26 03:50:58;;;;;;;0.30;0.30;;;29.10;56.20;;;29.74;40.55;94540.06;4993198;28;20204;-32
2023/08/26 03:53:27;;;;;;;0.32;0.32;;;29.10;56.10;;;29.70;40.57;94542.59;4992621;28;20208;-31
2023/08/26 03:55:55;;;;;;;0.30;0.30;;;29.00;56.20;;;29.68;40.79;94535.94;4991917;28;20211;-31
2023/08/26 03:58:22;;;;;;;0.20;0.20;;;29.00;56.20;;;29.66;40.42;94530.06;4993015;28;20624;-33
2023/08/26 04:00:50;;;;;;;0.30;0.30;;;28.90;56.30;;;29.66;40.91;94533.56;4991875;28;20545;-31
2023/08/26 04:03:17;;;;;;;0.22;0.22;;;28.90;56.30;;;29.65;41.22;94528.47;4992846;28;20217;-32
2023/08/26 04:05:45;;;;;;;0.20;0.20;;;28.90;56.40;;;29.63;41.10;94528.81;4993019;28;20286;-32
2023/08/26 04:08:12;;;;;;;0.22;0.22;;;28.90;56.40;;;29.64;40.82;94524.22;4991688;28;20253;-32
2023/08/26 04:10:39;;;;;;;0.30;0.30;;;28.90;56.60;;;29.64;41.38;94524.22;4991717;28;20643;-31
2023/08/26 04:13:28;;;;;;;0.30;0.30;;;28.90;56.50;;;29.60;41.47;94521.34;5007955;28;20200;-31
2023/08/26 04:15:57;;;;;;;0.30;0.30;;;28.90;56.40;;;29.59;41.18;94519.75;5007854;28;20699;-32
2023/08/26 04:18:25;;;;;;;0.30;0.30;;;28.90;56.50;;;29.60;41.34;94547.56;4991942;28;20200;-30
2023/08/26 04:20:55;;;;;;;0.20;0.20;;;28.90;56.50;;;29.60;41.45;94561.91;4993186;28;20197;-32
2023/08/26 04:23:22;;;;;;;0.20;0.20;;;28.90;56.50;;;29.60;41.52;94539.47;4991584;28;20281;-30
2023/08/26 04:26:02;;;;;;;0.30;0.30;;;28.90;56.50;;;29.58;41.04;94547.09;4991569;28;20205;-30
2023/08/26 04:28:30;;;;;;;0.30;0.30;;;28.90;56.50;;;29.55;40.94;94549.34;4991498;28;20236;-32
2023/08/26 04:30:59;;;;;;;0.30;0.30;;;28.90;56.60;;;29.57;41.35;94564.44;5007770;28;20268;-32
2023/08/26 04:33:26;;;;;;;0.30;0.30;;;28.90;56.70;;;29.55;41.46;94560.16;5007880;28;20204;-32
2023/08/26 04:35:53;;;;;;;0.28;0.28;;;28.90;56.60;;;29.54;40.70;94560.44;4991449;28;20311;-32
2023/08/26 04:38:20;;;;;;;0.20;0.20;;;28.80;56.30;;;29.51;40.72;94561.09;4991326;28;20215;-32
2023/08/26 04:40:47;;;;;;;0.22;0.22;;;28.80;56.30;;;29.48;41.37;94561.75;4991428;28;20235;-32
2023/08/26 04:43:14;;;;;;;0.30;0.30;;;28.80;56.40;;;29.47;41.25;94563.66;4992266;28;20271;-32
2023/08/26 04:45:41;;;;;;;0.20;0.20;;;28.80;56.50;;;29.46;41.14;94564.75;4992312;28;20197;-32
2023/08/26 04:48:09;;;;;;;0.30;0.30;;;28.80;56.70;;;29.46;41.07;94574.78;4992512;28;20518;-31
2023/08/26 04:50:37;;;;;;;0.25;0.25;;;28.70;58.00;;;29.43;41.73;94597.03;4991254;28;20207;-30
2023/08/26 04:53:04;;;;;;;0.20;0.20;;;28.70;56.80;;;29.42;41.67;94611.66;4992229;28;20224;-32
2023/08/26 04:55:31;;;;;;;0.20;0.20;;;28.70;56.80;;;29.40;41.74;94606.56;4992157;28;20198;-30
2023/08/26 04:58:01;;;;;;;0.30;0.30;;;28.70;56.80;;;29.37;41.13;94594.50;4991212;28;20211;-30
2023/08/26 05:00:29;;;;;;;0.20;0.20;;;28.70;56.90;;;29.38;41.67;94592.59;4993025;28;20255;-31
2023/08/26 05:02:56;;;;;;;0.28;0.28;;;28.60;56.90;;;29.38;41.39;94601.50;4975042;28;20236;-30
2023/08/26 05:05:23;;;;;;;0.30;0.30;;;28.60;57.10;;;29.37;41.48;94599.13;4994832;28;20542;-29
2023/08/26 05:07:50;;;;;;;0.20;0.20;;;28.60;57.10;;;29.37;42.08;94593.72;4994448;28;20266;-31
2023/08/26 05:10:17;;;;;;;0.20;0.20;;;28.70;57.30;;;29.38;41.50;94589.88;4994418;28;20204;-32
2023/08/26 05:12:46;;;;;;;0.28;0.28;;;28.70;57.20;;;29.37;41.89;94583.69;5010690;28;20208;-30
2023/08/26 05:15:13;;;;;;;0.28;0.28;;;28.70;57.30;;;29.38;41.46;94579.88;4994372;28;20540;-31
2023/08/26 05:17:40;;;;;;;0.20;0.20;;;28.70;58.70;;;29.38;42.10;94570.97;4995105;28;20336;-33
2023/08/26 05:20:09;;;;;;;0.20;0.20;;;28.70;57.50;;;29.37;42.23;94572.88;4994214;28;20200;-34
2023/08/26 05:22:36;;;;;;;0.20;0.20;;;28.70;57.60;;;29.38;42.16;94568.28;4994339;28;20200;-32
2023/08/26 05:25:05;;;;;;;0.25;0.25;;;28.70;57.60;;;29.39;42.13;94565.28;4994355;28;20226;-31
2023/08/26 05:27:32;;;;;;;0.20;0.20;;;28.70;57.70;;;29.38;41.95;94563.69;5010581;28;20193;-41
2023/08/26 05:29:59;;;;;;;0.30;0.30;;;28.70;57.80;;;29.39;42.42;94573.38;5010366;28;20205;-31
2023/08/26 05:32:28;;;;;;;0.30;0.30;;;28.70;57.90;;;29.38;42.13;94574.47;4994320;28;20208;-35
2023/08/26 05:34:55;;;;;;;0.32;0.32;;;28.70;57.80;;;29.39;42.57;94584.19;4995279;28;20203;-35
2023/08/26 05:37:23;;;;;;;0.20;0.20;;;28.70;57.80;;;29.40;42.14;94587.66;4994123;28;20336;-32
2023/08/26 05:39:50;;;;;;;0.30;0.30;;;28.70;57.80;;;29.40;42.55;94601.19;4993834;28;20200;-31
2023/08/26 05:42:17;;;;;;;0.30;0.30;;;28.80;57.90;;;29.43;42.70;94610.53;5010257;28;20229;-30
2023/08/26 05:44:44;;;;;;;0.20;0.20;;;28.80;57.90;;;29.42;41.94;94617.88;4993865;28;20225;-31
2023/08/26 05:47:11;;;;;;;0.30;0.30;;;28.80;57.90;;;29.42;42.48;94614.34;5010246;28;20206;-30
2023/08/26 05:49:38;;;;;;;0.30;0.30;;;28.80;57.90;;;29.41;42.51;94623.56;4993952;28;20230;-29
2023/08/26 05:52:06;;;;;;;0.20;0.20;;;28.70;57.70;;;29.41;42.48;94634.38;5010091;28;20593;-31
2023/08/26 05:54:33;;;;;;;0.30;0.30;;;28.70;57.80;;;29.39;42.60;94649.03;5010867;28;20204;-31
2023/08/26 05:57:03;;;;;;;0.30;0.30;;;28.70;58.00;;;29.39;42.64;94654.44;4993788;28;20631;-32
2023/08/26 05:59:31;;;;;;;0.20;0.20;;;28.70;58.00;;;29.38;42.14;94658.22;4993726;28;20207;-31
2023/08/26 06:02:02;;;;;;;0.30;0.30;;;28.70;58.10;;;29.40;42.66;94666.00;5009998;28;20299;-36
2023/08/26 06:04:29;;;;;;;0.30;0.30;;;28.70;58.10;;;29.39;42.12;94654.44;4993635;28;20236;-30
2023/08/26 06:06:57;;;;;;;0.30;0.30;;;28.70;58.20;;;29.39;42.32;94651.72;4994753;28;20205;-31
2023/08/26 06:09:24;;;;;;;0.30;0.30;;;28.60;58.20;;;29.38;42.73;94671.75;4994624;28;20205;-33
2023/08/26 06:11:51;;;;;;;0.20;0.20;;;28.70;59.60;;;29.41;42.28;94680.31;4993541;28;20217;-38
2023/08/26 06:14:19;;;;;;;0.20;0.20;;;28.70;58.20;;;29.41;42.30;94675.72;4993468;28;20303;-32
2023/08/26 06:16:47;;;;;;;0.20;0.20;;;28.70;58.30;;;29.41;43.06;94673.00;4994187;28;20275;-33
2023/08/26 06:19:14;;;;;;;0.30;0.30;;;28.70;58.30;;;29.42;42.39;94680.00;4993469;28;20262;-30
2023/08/26 06:21:41;;;;;;;0.30;0.30;;;28.70;58.30;;;29.43;42.47;94692.41;4993327;28;20228;-30
2023/08/26 06:24:09;;;;;;;0.20;0.20;;;28.70;58.30;;;29.45;43.00;94711.00;4993320;28;20286;-35
2023/08/26 06:26:36;;;;;;;0.30;0.30;;;28.80;58.30;;;29.44;42.89;94712.88;4994372;28;20273;-32
2023/08/26 06:29:03;;;;;;;0.30;0.30;;;28.80;58.40;;;29.45;42.91;94730.69;4993323;28;20237;-31
2023/08/26 06:31:31;;;;;;;0.20;0.20;;;28.80;58.40;;;29.46;42.53;94747.72;4993369;28;20203;-32
2023/08/26 06:33:58;;;;;;;0.30;0.30;;;28.80;58.20;;;29.44;42.61;94771.56;5009564;28;20208;-32
2023/08/26 06:36:26;;;;;;;0.30;0.30;;;28.80;58.20;;;29.43;42.86;94783.47;5009835;28;20221;-31
2023/08/26 06:38:54;;;;;;;0.20;0.20;;;28.80;58.10;;;29.42;42.94;94779.97;4994248;28;20201;-41
2023/08/26 06:41:21;;;;;;;0.30;0.30;;;28.80;58.10;;;29.42;42.18;94779.97;4994242;28;20300;-30
2023/08/26 06:43:48;;;;;;;0.20;0.20;;;28.80;58.00;;;29.43;42.73;94786.97;4993126;28;20225;-31
2023/08/26 06:46:22;;;;;;;0.20;0.20;;;28.80;58.00;;;29.43;43.04;94797.78;4977900;28;20225;-30
2023/08/26 06:48:49;;;;;;;0.30;0.30;;;28.80;58.10;;;29.44;42.42;94796.66;4993858;28;20212;-30
2023/08/26 06:51:16;;;;;;;0.20;0.20;;;28.80;58.20;;;29.44;42.59;94801.28;4992927;28;20200;-30
2023/08/26 06:53:44;;;;;;;0.20;0.20;;;28.80;58.20;;;29.43;42.66;94797.78;4993779;28;20203;-30
2023/08/26 06:56:11;;;;;;;0.20;0.20;;;28.80;58.30;;;29.45;42.96;94798.25;4976871;28;20209;-30
2023/08/26 06:58:38;;;;;;;0.30;0.30;;;28.80;58.40;;;29.46;43.03;94790.94;4994017;28;20223;-30
2023/08/26 07:01:05;;;;;;;0.30;0.30;;;28.80;58.40;;;29.47;42.53;94787.16;4994019;28;20228;-31
2023/08/26 07:03:34;;;;;;;0.30;0.30;;;28.80;58.40;;;29.47;43.20;94779.03;4993768;28;20669;-30
2023/08/26 07:06:01;;;;;;;0.20;0.20;;;28.80;58.50;;;29.48;43.30;94784.13;4993796;28;20666;-30
2023/08/26 07:08:28;;;;;;;0.20;0.20;;;28.80;58.50;;;29.50;42.78;94797.31;4993855;28;20262;-30
2023/08/26 07:10:55;;;;;;;0.20;0.20;;;28.80;58.60;;;29.50;43.00;94811.63;4994102;28;20189;-30
2023/08/26 07:13:22;;;;;;;0.20;0.20;;;28.80;58.60;;;29.52;43.40;94812.09;4993486;28;20201;-32
2023/08/26 07:15:49;;;;;;;0.20;0.20;;;28.80;58.70;;;29.53;43.32;94815.59;4993485;28;20197;-31
2023/08/26 07:18:16;;;;;;;0.20;0.20;;;28.90;58.80;;;29.53;43.31;94805.56;4993645;28;20277;-31
2023/08/26 07:20:47;;;;;;;0.20;0.20;;;28.90;58.90;;;29.55;43.42;94810.66;4993436;28;20219;-28
2023/08/26 07:23:15;;;;;;;0.28;0.28;;;28.90;58.90;;;29.57;42.97;94818.47;4993264;28;20266;-31
2023/08/26 07:25:42;;;;;;;0.20;0.20;;;28.90;59.00;;;29.56;42.97;94812.25;4992787;28;20577;-33
2023/08/26 07:28:09;;;;;;;0.22;0.22;;;28.90;59.00;;;29.59;43.39;94808.94;4993074;28;20678;-30
2023/08/26 07:30:36;;;;;;;0.20;0.20;;;28.90;59.00;;;29.60;43.42;94805.13;4993998;28;20686;-31
2023/08/26 07:33:03;;;;;;;0.20;0.20;;;28.90;59.10;;;29.64;43.19;94810.69;4993556;28;20228;-31
2023/08/26 07:35:30;;;;;;;0.30;0.30;;;28.90;59.10;;;29.63;43.68;94807.19;4993078;28;20196;-30
2023/08/26 07:37:57;;;;;;;0.20;0.20;;;29.00;59.20;;;29.65;43.89;94807.66;4993178;28;20291;-33
2023/08/26 07:40:26;;;;;;;0.20;0.20;;;29.00;59.20;;;29.66;43.43;94794.94;4993182;28;20284;-31
2023/08/26 07:42:55;;;;;;;0.30;0.30;;;29.00;59.20;;;29.68;43.31;94798.13;5008477;28;20205;-31
2023/08/26 07:45:23;;;;;;;0.20;0.20;;;29.00;59.20;;;29.69;43.12;94797.03;4993775;28;20223;-31
2023/08/26 07:47:50;;;;;;;0.30;0.30;;;29.00;59.20;;;29.70;43.17;94780.47;4993341;28;20185;-30
2023/08/26 07:50:19;;;;;;;0.20;0.20;;;29.10;59.30;;;29.71;43.27;94790.19;4993006;28;20186;-32
2023/08/26 07:52:47;;;;;;;0.20;0.20;;;29.10;59.30;;;29.72;44.00;94785.56;4993231;28;20193;-30
2023/08/26 07:55:14;;;;;;;0.20;0.20;;;29.10;59.20;;;29.75;43.87;94781.41;4992964;28;20190;-33
2023/08/26 07:57:41;;;;;;;0.20;0.20;;;29.10;59.30;;;29.76;43.42;94772.19;4992841;28;20258;-30
2023/08/26 08:00:10;;;;;;;0.20;0.20;;;29.10;59.20;;;29.77;43.98;94765.69;4992819;28;20206;-31
2023/08/26 08:02:41;;;;;;;0.30;0.30;;;29.10;59.20;;;29.76;43.30;94753.28;4992032;28;20740;-30
2023/08/26 08:05:08;;;;;;;0.32;0.32;;;29.10;59.10;;;29.75;43.82;94752.50;4992755;28;20217;-30
2023/08/26 08:07:36;;;;;;;0.20;0.20;;;29.10;59.20;;;29.76;43.72;94727.06;4993045;28;20321;-30
2023/08/26 08:10:03;;;;;;;0.20;0.20;;;29.10;59.20;;;29.78;43.82;94727.50;4992995;28;20193;-31
2023/08/26 08:12:30;;;;;;;0.20;0.20;;;29.10;59.30;;;29.79;43.56;94742.63;4993266;28;20185;-31
2023/08/26 08:14:57;;;;;;;0.30;0.30;;;29.20;59.50;;;29.79;44.20;94739.91;4992397;28;20200;-30
2023/08/26 08:17:24;;;;;;;0.20;0.20;;;29.10;59.30;;;29.81;43.52;94731.50;4992527;28;20640;-31
2023/08/26 08:19:52;;;;;;;0.20;0.20;;;29.20;59.40;;;29.80;43.69;94727.22;4992644;28;20193;-30
2023/08/26 08:22:36;;;;;;;0.25;0.25;;;29.20;59.50;;;29.79;43.86;94718.28;4993140;28;20602;-32
2023/08/26 08:25:04;;;;;;;0.20;0.20;;;29.20;59.40;;;29.81;43.54;94712.56;4993469;28;20209;-31
2023/08/26 08:27:31;;;;;;;0.30;0.30;;;29.20;59.40;;;29.83;43.79;94713.84;4992610;28;20281;-30
2023/08/26 08:29:59;;;;;;;0.40;0.40;;;29.20;60.50;;;29.83;43.67;94707.63;4992549;28;20204;-30
2023/08/26 08:32:27;;;;;;;0.20;0.20;;;29.20;59.60;;;29.83;43.58;94694.94;4992608;28;20190;-31
2023/08/26 08:34:55;;;;;;;0.20;0.20;;;29.20;59.40;;;29.84;43.68;94698.41;4991511;28;20213;-31
2023/08/26 08:37:22;;;;;;;0.20;0.20;;;29.20;59.50;;;29.86;43.65;94696.19;4992962;28;20203;-30
2023/08/26 08:39:49;;;;;;;0.30;0.30;;;29.30;59.70;;;29.86;43.67;94694.28;4994621;28;20209;-30
2023/08/26 08:42:17;;;;;;;0.20;0.20;;;29.30;59.70;;;29.89;44.36;94675.84;4995171;28;20629;-31
2023/08/26 08:44:48;;;;;;;0.30;0.30;;;29.30;59.70;;;29.91;44.01;94679.03;4995793;28;20209;-30
2023/08/26 08:47:16;;;;;;;0.30;0.30;;;29.30;59.80;;;29.92;44.22;94683.31;4995986;28;20174;-29
2023/08/26 08:49:44;;;;;;;0.30;0.30;;;29.30;59.90;;;29.94;43.72;94687.28;4994784;28;20659;-32
2023/08/26 08:52:11;;;;;;;0.35;0.35;;;29.30;59.90;;;29.96;44.22;94682.34;4994924;28;20284;-30
2023/08/26 08:54:40;;;;;;;0.20;0.20;;;29.30;59.90;;;29.99;43.70;94689.03;4995885;28;20277;-30
2023/08/26 08:57:13;;;;;;;0.28;0.28;;;29.40;59.90;;;30.01;43.85;94686.81;4995604;28;20255;-30
2023/08/26 08:59:40;;;;;;;0.50;0.50;;;29.30;59.90;;;30.02;44.31;94683.00;5079713;28;20197;-32
2023/08/26 09:02:09;;;;;;;0.30;0.30;;;29.40;59.90;;;30.02;44.23;94694.59;4995822;28;20205;-33
2023/08/26 09:04:36;;;;;;;0.20;0.20;;;29.40;59.70;;;30.06;44.25;94702.84;4994367;28;20734;-32
2023/08/26 09:07:06;;;;;;;0.30;0.30;;;29.40;59.80;;;30.09;44.10;94714.94;4995401;28;20190;-31
2023/08/26 09:09:33;;;;;;;0.30;0.30;;;29.40;59.70;;;30.09;44.43;94709.53;4994624;28;20202;-30
2023/08/26 09:12:14;;;;;;;0.20;0.20;;;29.50;59.80;;;30.10;44.38;94713.81;4995389;28;20276;-30
2023/08/26 09:14:41;;;;;;;0.40;0.40;;;29.40;59.60;;;30.13;44.02;94713.19;4995493;28;20201;-30
2023/08/26 09:17:19;;;;;;;0.30;0.30;;;29.50;59.70;;;30.13;44.43;94711.28;4995152;28;20684;-32
2023/08/26 09:19:55;;;;;;;0.30;0.30;;;29.50;59.70;;;30.12;44.36;94709.69;4995430;28;20186;-30
2023/08/26 09:22:27;;;;;;;0.40;0.40;;;29.50;59.60;;;30.16;43.73;94715.25;4995537;28;20201;-33
2023/08/26 09:24:59;;;;;;;0.30;0.30;;;29.60;59.80;;;30.17;43.99;94714.13;4995182;28;20641;-31
2023/08/26 09:27:28;;;;;;;0.40;0.40;;;29.60;59.60;;;30.18;43.72;94716.50;4994658;28;20197;-32
2023/08/26 09:29:55;;;;;;;0.20;0.20;;;29.60;59.50;;;30.18;43.58;94713.03;4995358;28;20633;-32
2023/08/26 09:32:45;;;;;;;0.38;0.38;;;29.50;59.40;;;30.18;44.22;94713.81;4995332;28;20197;-32
2023/08/26 09:35:17;;;;;;;0.30;0.30;;;29.50;59.50;;;30.21;44.08;94709.66;4995637;28;20282;-31
2023/08/26 09:38:04;;;;;;;0.30;0.30;;;29.60;59.60;;;30.21;43.83;94712.38;4995068;28;20185;-30
2023/08/26 09:40:32;;;;;;;0.20;0.20;;;29.60;59.60;;;30.23;43.85;94717.47;4994788;28;20193;-33
2023/08/26 09:43:03;;;;;;;0.25;0.25;;;29.60;59.70;;;30.22;43.85;94713.97;4978025;28;20202;-30
2023/08/26 09:45:36;;;;;;;0.40;0.40;;;29.60;59.70;;;30.24;43.68;94711.72;4995281;28;20210;-31
2023/08/26 09:48:05;;;;;;;0.30;0.30;;;29.60;59.70;;;30.27;43.53;94719.22;4995250;28;20174;-30
2023/08/26 09:50:33;;;;;;;0.30;0.30;;;29.60;59.60;;;30.28;43.63;94709.19;4994818;28;20226;-31
2023/08/26 09:53:01;;;;;;;0.20;0.20;;;29.60;59.70;;;30.28;43.97;94723.47;4995391;28;20186;-30
2023/08/26 09:55:28;;;;;;;0.32;0.32;;;29.60;59.70;;;30.30;44.01;94709.66;4995159;28;20639;-30
2023/08/26 09:57:57;;;;;;;0.30;0.30;;;29.60;59.70;;;30.31;43.66;94713.94;4994629;28;20197;-31
2023/08/26 10:00:25;;;;;;;0.20;0.20;;;29.60;59.60;;;30.31;43.94;94711.22;5009963;28;20205;-35
2023/08/26 10:02:59;;;;;;;0.30;0.30;;;29.60;59.60;;;30.31;43.97;94709.31;4994612;28;20222;-30
2023/08/26 10:05:28;;;;;;;0.22;0.22;;;29.60;59.50;;;30.34;43.90;94710.59;4993921;28;20311;-33
2023/08/26 10:07:56;;;;;;;0.30;0.30;;;29.70;59.60;;;30.34;44.11;94713.28;4977482;28;20226;-32
2023/08/26 10:10:43;;;;;;;0.22;0.22;;;29.60;59.50;;;30.34;44.16;94700.53;4993879;28;20198;-31
2023/08/26 10:13:11;;;;;;;0.30;0.30;;;29.70;59.60;;;30.36;43.91;94705.66;4993652;28;20236;-32
2023/08/26 10:15:38;;;;;;;0.25;0.25;;;29.70;59.60;;;30.38;44.05;94702.63;4994531;28;20213;-30
2023/08/26 10:18:15;;;;;;;0.20;0.20;;;29.70;59.70;;;30.39;44.20;94701.50;4978102;28;20187;-31
2023/08/26 10:20:44;;;;;;;0.20;0.20;;;29.70;59.60;;;30.41;44.24;94710.09;4994314;28;20601;-30
2023/08/26 10:23:12;;;;;;;0.30;0.30;;;29.70;59.60;;;30.41;43.88;94712.81;5078185;28;20661;-30
2023/08/26 10:25:40;;;;;;;0.30;0.30;;;29.70;59.70;;;30.42;43.66;94709.78;4994177;28;20517;-30
2023/08/26 10:28:08;;;;;;;0.30;0.30;;;29.80;59.80;;;30.44;44.17;94702.09;5061340;28;20222;-34